Terminal Aerodrome Forecast
Issued by NWS Wilmington, NC

Home | Current Version | Previous Version | Text Only | Print | Product List | Glossary On
Versions: 1 2 3 4 5 6 7 8 9 10 11 12 13 14 15 16 17 18 19 20 21 22 23 24 25
492
FTUS42 KILM 221347 AAB
TAFLBT
TAF AMD
KLBT 221347Z 2214/2312 23005KT P6SM SCT015 BKN100
      TEMPO 2214/2215 BKN015
     FM221700 24006KT P6SM BKN110
     FM230200 18004KT P6SM BKN140
     FM231000 21008KT P6SM BKN120=

USA.gov is the U.S. government's official web portal to all federal, state and local government web resources and services.